• location
  • image
mod_vvisit_countermod_vvisit_countermod_vvisit_countermod_vvisit_countermod_vvisit_countermod_vvisit_countermod_vvisit_counter
mod_vvisit_counterToday264
mod_vvisit_counterYesterday479
mod_vvisit_counterThis week264
mod_vvisit_counterLast week4472
mod_vvisit_counterThis month6092
mod_vvisit_counterLast month17680
mod_vvisit_counterAll days1032004

We have: 12 guests, 4 bots online
Your IP: 54.226.36.60
 , 
Today: Dec 10, 2018
Airport / News

September 2017

Informational notification about leasing the Municipal Company Šiaulių Oro Uostas-owned land lot sections (B, C, D, E) by way of auction

The auction date are changed from 2 October 2017 to 20 October 2017

The Municipal Company Šiaulių Oro Uostas is holding a lease auction for its land lot at Šiauliai city municipality, Šiauliai city, Aviacijos g. 5 (unique number 4400-3221-8923) in accordance with the terms of the Descriptor of the Procedure of Leasing International Airport Land by Way of Auction, approved by the 8 November 2006 ruling No. 1098 of the Government of the Republic of Lithuania Regarding the Leasing of International Airport Landand  the information provided in the Draft Land Lease Agreement.

The bidder shall provide: The decision of the Commission for Assessing Compliance with National Security Interests, assembled by the Prime Minister of the Republic Lithuania via ruling No. 9 (relevant revision).

You can find the ad and related information here:

http://www.siauliai-airport.com/en/company/announcements

Today

Monday, 10 December 2018

Aviation Weather Forecast

[source: ADDS]
METAR
EYSA 100450Z 22007KT 1600 BR OVC002 03/03 Q0992 R14L/29//95 AMB TEMPO OVC003 YLO2 =
TAF EYSA 100502Z 1006/1015 20006KT 1500 BR OVC002 TEMPO 1006/1009 0800 FG BECMG 1010/1012 3000 TEMPO 1012/1015 5000 RA OVC005
TAF
TAF EYSA 100502Z 1006/1015 20006KT 1500 BR OVC002 TEMPO 1006/1009 0800 FG BECMG 1010/1012 3000 TEMPO 1012/1015 5000 RA OVC005 =
SR / SS: 06:41 / 14:00 UTC (EYSA 2018-12-10)

Search

Who's Online

We have 17 guests online

tic logo en